sensor_id;sensor_type;location;lat;lon;timestamp;temperature;humidity
23089;DHT22;11713;48.506;8.966;2022-12-07T00:01:10;4.00;99.90
23089;DHT22;11713;48.506;8.966;2022-12-07T00:03:37;4.00;99.90
23089;DHT22;11713;48.506;8.966;2022-12-07T00:06:05;4.00;99.90
23089;DHT22;11713;48.506;8.966;2022-12-07T00:08:32;4.00;99.90
23089;DHT22;11713;48.506;8.966;2022-12-07T00:11:07;4.00;99.90
23089;DHT22;11713;48.506;8.966;2022-12-07T00:13:34;4.00;99.90
23089;DHT22;11713;48.506;8.966;2022-12-07T00:16:05;4.00;99.90
23089;DHT22;11713;48.506;8.966;2022-12-07T00:18:32;4.00;99.90
23089;DHT22;11713;48.506;8.966;2022-12-07T00:21:06;4.00;99.90
23089;DHT22;11713;48.506;8.966;2022-12-07T00:23:33;4.00;99.90
23089;DHT22;11713;48.506;8.966;2022-12-07T00:26:11;4.00;99.90
23089;DHT22;11713;48.506;8.966;2022-12-07T00:28:37;4.00;99.90
23089;DHT22;11713;48.506;8.966;2022-12-07T00:31:06;4.00;99.90
23089;DHT22;11713;48.506;8.966;2022-12-07T00:33:33;4.00;99.90
23089;DHT22;11713;48.506;8.966;2022-12-07T00:36:00;4.00;99.90
23089;DHT22;11713;48.506;8.966;2022-12-07T00:38:29;4.00;99.90
23089;DHT22;11713;48.506;8.966;2022-12-07T00:41:00;4.00;99.90
23089;DHT22;11713;48.506;8.966;2022-12-07T00:43:27;4.00;99.90
23089;DHT22;11713;48.506;8.966;2022-12-07T00:45:53;4.00;99.90
23089;DHT22;11713;48.506;8.966;2022-12-07T00:48:19;4.00;99.90
23089;DHT22;11713;48.506;8.966;2022-12-07T00:50:46;4.00;99.90
23089;DHT22;11713;48.506;8.966;2022-12-07T00:53:12;4.00;99.90
23089;DHT22;11713;48.506;8.966;2022-12-07T00:55:37;4.00;99.90
23089;DHT22;11713;48.506;8.966;2022-12-07T00:58:04;4.00;99.90
23089;DHT22;11713;48.506;8.966;2022-12-07T01:03:37;4.00;99.90
23089;DHT22;11713;48.506;8.966;2022-12-07T01:06:03;3.90;99.90
23089;DHT22;11713;48.506;8.966;2022-12-07T01:08:30;3.90;99.90
23089;DHT22;11713;48.506;8.966;2022-12-07T01:11:18;3.90;99.90
23089;DHT22;11713;48.506;8.966;2022-12-07T01:13:45;3.90;99.90
23089;DHT22;11713;48.506;8.966;2022-12-07T01:16:13;3.90;99.90
23089;DHT22;11713;48.506;8.966;2022-12-07T01:18:40;3.90;99.90
23089;DHT22;11713;48.506;8.966;2022-12-07T01:21:12;3.90;99.90
23089;DHT22;11713;48.506;8.966;2022-12-07T01:23:38;3.90;99.90
23089;DHT22;11713;48.506;8.966;2022-12-07T01:26:06;3.90;99.90
23089;DHT22;11713;48.506;8.966;2022-12-07T01:28:33;3.90;99.90
23089;DHT22;11713;48.506;8.966;2022-12-07T01:31:08;3.80;99.90
23089;DHT22;11713;48.506;8.966;2022-12-07T01:33:36;3.80;99.90
23089;DHT22;11713;48.506;8.966;2022-12-07T01:36:17;3.80;99.90
23089;DHT22;11713;48.506;8.966;2022-12-07T01:38:44;3.80;99.90
23089;DHT22;11713;48.506;8.966;2022-12-07T01:41:10;3.80;99.90
23089;DHT22;11713;48.506;8.966;2022-12-07T01:44:05;3.80;99.90
23089;DHT22;11713;48.506;8.966;2022-12-07T01:46:22;3.90;99.90
23089;DHT22;11713;48.506;8.966;2022-12-07T01:48:48;3.80;99.90
23089;DHT22;11713;48.506;8.966;2022-12-07T01:51:15;3.80;99.90
23089;DHT22;11713;48.506;8.966;2022-12-07T01:53:43;3.90;99.90
23089;DHT22;11713;48.506;8.966;2022-12-07T01:56:14;3.90;99.90
23089;DHT22;11713;48.506;8.966;2022-12-07T01:58:43;3.90;99.90
23089;DHT22;11713;48.506;8.966;2022-12-07T02:01:09;3.90;99.90
23089;DHT22;11713;48.506;8.966;2022-12-07T02:03:41;3.90;99.90
23089;DHT22;11713;48.506;8.966;2022-12-07T02:06:08;3.90;99.90
23089;DHT22;11713;48.506;8.966;2022-12-07T02:08:35;3.90;99.90
23089;DHT22;11713;48.506;8.966;2022-12-07T02:11:03;3.90;99.90
23089;DHT22;11713;48.506;8.966;2022-12-07T02:13:34;3.90;99.90
23089;DHT22;11713;48.506;8.966;2022-12-07T02:24:54;3.80;99.90
23089;DHT22;11713;48.506;8.966;2022-12-07T02:27:59;3.80;99.90
23089;DHT22;11713;48.506;8.966;2022-12-07T02:30:20;3.80;99.90
23089;DHT22;11713;48.506;8.966;2022-12-07T02:33:06;3.80;99.90
23089;DHT22;11713;48.506;8.966;2022-12-07T02:35:43;3.80;99.90
23089;DHT22;11713;48.506;8.966;2022-12-07T02:38:31;3.80;99.90
23089;DHT22;11713;48.506;8.966;2022-12-07T02:41:21;3.70;99.90
23089;DHT22;11713;48.506;8.966;2022-12-07T02:44:06;3.70;99.90
23089;DHT22;11713;48.506;8.966;2022-12-07T02:46:42;3.70;99.90
23089;DHT22;11713;48.506;8.966;2022-12-07T02:49:09;3.70;99.90
23089;DHT22;11713;48.506;8.966;2022-12-07T02:51:40;3.60;99.90
23089;DHT22;11713;48.506;8.966;2022-12-07T02:54:18;3.50;99.90
23089;DHT22;11713;48.506;8.966;2022-12-07T02:59:36;3.20;99.90
23089;DHT22;11713;48.506;8.966;2022-12-07T03:18:25;2.70;99.90
23089;DHT22;11713;48.506;8.966;2022-12-07T03:20:53;2.70;99.90
23089;DHT22;11713;48.506;8.966;2022-12-07T03:23:22;2.70;99.90
23089;DHT22;11713;48.506;8.966;2022-12-07T03:25:53;2.70;99.90
23089;DHT22;11713;48.506;8.966;2022-12-07T03:28:23;2.70;99.90
23089;DHT22;11713;48.506;8.966;2022-12-07T03:30:56;2.70;99.90
23089;DHT22;11713;48.506;8.966;2022-12-07T03:33:31;2.80;99.90
23089;DHT22;11713;48.506;8.966;2022-12-07T03:36:15;2.80;99.90
23089;DHT22;11713;48.506;8.966;2022-12-07T03:38:46;2.80;99.90
23089;DHT22;11713;48.506;8.966;2022-12-07T03:41:25;2.90;99.90
23089;DHT22;11713;48.506;8.966;2022-12-07T03:43:51;2.90;99.90
23089;DHT22;11713;48.506;8.966;2022-12-07T03:49:08;2.80;99.90
23089;DHT22;11713;48.506;8.966;2022-12-07T03:51:40;2.80;99.90
23089;DHT22;11713;48.506;8.966;2022-12-07T03:54:28;2.80;99.90
23089;DHT22;11713;48.506;8.966;2022-12-07T03:56:57;2.80;99.90
23089;DHT22;11713;48.506;8.966;2022-12-07T03:59:25;2.80;99.90
23089;DHT22;11713;48.506;8.966;2022-12-07T04:01:54;2.70;99.90
23089;DHT22;11713;48.506;8.966;2022-12-07T04:04:21;2.70;99.90
23089;DHT22;11713;48.506;8.966;2022-12-07T04:06:47;2.80;99.90
23089;DHT22;11713;48.506;8.966;2022-12-07T04:09:13;2.70;99.90
23089;DHT22;11713;48.506;8.966;2022-12-07T04:11:40;2.80;99.90
23089;DHT22;11713;48.506;8.966;2022-12-07T04:14:06;2.80;99.90
23089;DHT22;11713;48.506;8.966;2022-12-07T04:16:50;2.70;99.90
23089;DHT22;11713;48.506;8.966;2022-12-07T04:19:18;2.70;99.90
23089;DHT22;11713;48.506;8.966;2022-12-07T04:21:44;2.70;99.90
23089;DHT22;11713;48.506;8.966;2022-12-07T04:24:11;2.80;99.90
23089;DHT22;11713;48.506;8.966;2022-12-07T04:26:37;2.80;99.90
23089;DHT22;11713;48.506;8.966;2022-12-07T04:29:03;2.80;99.90
23089;DHT22;11713;48.506;8.966;2022-12-07T04:31:29;2.80;99.90
23089;DHT22;11713;48.506;8.966;2022-12-07T04:33:55;2.80;99.90
23089;DHT22;11713;48.506;8.966;2022-12-07T04:36:21;2.80;99.90
23089;DHT22;11713;48.506;8.966;2022-12-07T04:38:47;2.80;99.90
23089;DHT22;11713;48.506;8.966;2022-12-07T04:41:13;2.80;99.90
23089;DHT22;11713;48.506;8.966;2022-12-07T04:43:39;2.80;99.90
23089;DHT22;11713;48.506;8.966;2022-12-07T04:46:05;2.70;99.90
23089;DHT22;11713;48.506;8.966;2022-12-07T04:48:31;2.80;99.90
23089;DHT22;11713;48.506;8.966;2022-12-07T04:50:57;2.80;99.90
23089;DHT22;11713;48.506;8.966;2022-12-07T04:53:23;2.80;99.90
23089;DHT22;11713;48.506;8.966;2022-12-07T04:55:49;2.80;99.90
23089;DHT22;11713;48.506;8.966;2022-12-07T04:58:15;2.70;99.90
23089;DHT22;11713;48.506;8.966;2022-12-07T05:00:41;2.70;99.90
23089;DHT22;11713;48.506;8.966;2022-12-07T05:03:07;2.70;99.90
23089;DHT22;11713;48.506;8.966;2022-12-07T05:05:33;2.70;99.90
23089;DHT22;11713;48.506;8.966;2022-12-07T05:07:59;2.70;99.90
23089;DHT22;11713;48.506;8.966;2022-12-07T05:10:24;2.70;99.90
23089;DHT22;11713;48.506;8.966;2022-12-07T05:12:50;2.70;99.90
23089;DHT22;11713;48.506;8.966;2022-12-07T05:15:16;2.70;99.90
23089;DHT22;11713;48.506;8.966;2022-12-07T05:17:42;2.60;99.90
23089;DHT22;11713;48.506;8.966;2022-12-07T05:20:09;2.60;99.90
23089;DHT22;11713;48.506;8.966;2022-12-07T05:22:34;2.60;99.90
23089;DHT22;11713;48.506;8.966;2022-12-07T05:25:01;2.60;99.90
23089;DHT22;11713;48.506;8.966;2022-12-07T05:27:27;2.60;99.90
23089;DHT22;11713;48.506;8.966;2022-12-07T05:29:53;2.60;99.90
23089;DHT22;11713;48.506;8.966;2022-12-07T05:32:18;2.50;99.90
23089;DHT22;11713;48.506;8.966;2022-12-07T05:34:44;2.50;99.90
23089;DHT22;11713;48.506;8.966;2022-12-07T05:37:10;2.50;99.90
23089;DHT22;11713;48.506;8.966;2022-12-07T05:39:36;2.40;99.90
23089;DHT22;11713;48.506;8.966;2022-12-07T05:42:03;2.40;99.90
23089;DHT22;11713;48.506;8.966;2022-12-07T05:44:43;2.30;99.90
23089;DHT22;11713;48.506;8.966;2022-12-07T05:47:10;2.30;99.90
23089;DHT22;11713;48.506;8.966;2022-12-07T05:49:37;2.30;99.90
23089;DHT22;11713;48.506;8.966;2022-12-07T05:52:03;2.30;99.90
23089;DHT22;11713;48.506;8.966;2022-12-07T05:54:29;2.20;99.90
23089;DHT22;11713;48.506;8.966;2022-12-07T05:56:55;2.20;99.90
23089;DHT22;11713;48.506;8.966;2022-12-07T05:59:22;2.20;99.90
23089;DHT22;11713;48.506;8.966;2022-12-07T06:01:57;2.10;99.90
23089;DHT22;11713;48.506;8.966;2022-12-07T06:04:25;2.10;99.90
23089;DHT22;11713;48.506;8.966;2022-12-07T06:06:51;2.10;99.90
23089;DHT22;11713;48.506;8.966;2022-12-07T06:09:18;2.10;99.90
23089;DHT22;11713;48.506;8.966;2022-12-07T06:11:44;2.00;99.90
23089;DHT22;11713;48.506;8.966;2022-12-07T06:14:28;2.00;99.90
23089;DHT22;11713;48.506;8.966;2022-12-07T06:16:54;2.00;99.90
23089;DHT22;11713;48.506;8.966;2022-12-07T06:19:20;1.90;99.90
23089;DHT22;11713;48.506;8.966;2022-12-07T06:21:46;1.80;99.90
23089;DHT22;11713;48.506;8.966;2022-12-07T06:24:13;1.80;99.90
23089;DHT22;11713;48.506;8.966;2022-12-07T06:26:40;1.80;99.90
23089;DHT22;11713;48.506;8.966;2022-12-07T06:29:06;1.80;99.90
23089;DHT22;11713;48.506;8.966;2022-12-07T06:31:32;1.70;99.90
23089;DHT22;11713;48.506;8.966;2022-12-07T06:34:03;1.60;99.90
23089;DHT22;11713;48.506;8.966;2022-12-07T06:36:29;1.40;99.90
23089;DHT22;11713;48.506;8.966;2022-12-07T06:38:55;1.40;99.90
23089;DHT22;11713;48.506;8.966;2022-12-07T06:41:21;1.40;99.90
23089;DHT22;11713;48.506;8.966;2022-12-07T06:43:47;1.30;99.90
23089;DHT22;11713;48.506;8.966;2022-12-07T06:46:16;1.40;99.90
23089;DHT22;11713;48.506;8.966;2022-12-07T06:48:43;1.30;99.90
23089;DHT22;11713;48.506;8.966;2022-12-07T06:51:09;1.40;99.90
23089;DHT22;11713;48.506;8.966;2022-12-07T06:53:36;1.40;99.90
23089;DHT22;11713;48.506;8.966;2022-12-07T06:56:04;1.30;99.90
23089;DHT22;11713;48.506;8.966;2022-12-07T06:58:30;1.30;99.90
23089;DHT22;11713;48.506;8.966;2022-12-07T07:00:56;1.30;99.90
23089;DHT22;11713;48.506;8.966;2022-12-07T07:03:22;1.40;99.90
23089;DHT22;11713;48.506;8.966;2022-12-07T07:05:48;1.30;99.90
23089;DHT22;11713;48.506;8.966;2022-12-07T07:08:15;1.30;99.90
23089;DHT22;11713;48.506;8.966;2022-12-07T07:10:41;1.30;99.90
23089;DHT22;11713;48.506;8.966;2022-12-07T07:13:07;1.30;99.90
23089;DHT22;11713;48.506;8.966;2022-12-07T07:15:33;1.30;99.90
23089;DHT22;11713;48.506;8.966;2022-12-07T07:18:00;1.30;99.90
23089;DHT22;11713;48.506;8.966;2022-12-07T07:20:26;1.30;99.90
23089;DHT22;11713;48.506;8.966;2022-12-07T07:22:55;1.30;99.90
23089;DHT22;11713;48.506;8.966;2022-12-07T07:25:21;1.30;99.90
23089;DHT22;11713;48.506;8.966;2022-12-07T07:27:47;1.40;99.90
23089;DHT22;11713;48.506;8.966;2022-12-07T07:30:13;1.50;99.90
23089;DHT22;11713;48.506;8.966;2022-12-07T07:32:39;1.50;99.90
23089;DHT22;11713;48.506;8.966;2022-12-07T07:35:05;1.60;99.90
23089;DHT22;11713;48.506;8.966;2022-12-07T07:37:31;1.70;99.90
23089;DHT22;11713;48.506;8.966;2022-12-07T07:39:57;1.70;99.90
23089;DHT22;11713;48.506;8.966;2022-12-07T07:42:23;1.80;99.90
23089;DHT22;11713;48.506;8.966;2022-12-07T07:44:49;1.90;99.90
23089;DHT22;11713;48.506;8.966;2022-12-07T07:47:15;1.90;99.90
23089;DHT22;11713;48.506;8.966;2022-12-07T07:49:41;2.00;99.90
23089;DHT22;11713;48.506;8.966;2022-12-07T07:52:06;2.00;99.90
23089;DHT22;11713;48.506;8.966;2022-12-07T07:54:32;2.00;99.90
23089;DHT22;11713;48.506;8.966;2022-12-07T07:56:58;2.00;99.90
23089;DHT22;11713;48.506;8.966;2022-12-07T07:59:24;2.10;99.90
23089;DHT22;11713;48.506;8.966;2022-12-07T08:01:50;2.10;99.90
23089;DHT22;11713;48.506;8.966;2022-12-07T08:04:16;2.10;99.90
23089;DHT22;11713;48.506;8.966;2022-12-07T08:06:42;2.20;99.90
23089;DHT22;11713;48.506;8.966;2022-12-07T08:09:08;2.20;99.90
23089;DHT22;11713;48.506;8.966;2022-12-07T08:11:35;2.20;99.90
23089;DHT22;11713;48.506;8.966;2022-12-07T08:14:02;2.20;99.90
23089;DHT22;11713;48.506;8.966;2022-12-07T08:16:28;2.20;99.90
23089;DHT22;11713;48.506;8.966;2022-12-07T08:18:54;2.20;99.90
23089;DHT22;11713;48.506;8.966;2022-12-07T08:21:20;2.30;99.90
23089;DHT22;11713;48.506;8.966;2022-12-07T08:23:46;2.30;99.90
23089;DHT22;11713;48.506;8.966;2022-12-07T08:26:14;2.30;99.90
23089;DHT22;11713;48.506;8.966;2022-12-07T08:28:42;2.40;99.90
23089;DHT22;11713;48.506;8.966;2022-12-07T08:31:14;2.40;99.90
23089;DHT22;11713;48.506;8.966;2022-12-07T08:33:40;2.30;99.90
23089;DHT22;11713;48.506;8.966;2022-12-07T08:36:08;2.40;99.90
23089;DHT22;11713;48.506;8.966;2022-12-07T08:38:35;2.50;99.90
23089;DHT22;11713;48.506;8.966;2022-12-07T08:41:02;2.50;99.90
23089;DHT22;11713;48.506;8.966;2022-12-07T08:43:28;2.50;99.90
23089;DHT22;11713;48.506;8.966;2022-12-07T08:48:29;2.60;99.90
23089;DHT22;11713;48.506;8.966;2022-12-07T08:50:55;2.70;99.90
23089;DHT22;11713;48.506;8.966;2022-12-07T08:53:22;2.70;99.90
23089;DHT22;11713;48.506;8.966;2022-12-07T08:55:48;2.70;99.90
23089;DHT22;11713;48.506;8.966;2022-12-07T08:58:14;2.80;99.90
23089;DHT22;11713;48.506;8.966;2022-12-07T09:00:40;2.80;99.90
23089;DHT22;11713;48.506;8.966;2022-12-07T09:03:06;2.90;99.90
23089;DHT22;11713;48.506;8.966;2022-12-07T09:05:33;2.90;99.90
23089;DHT22;11713;48.506;8.966;2022-12-07T09:08:01;3.00;99.90
23089;DHT22;11713;48.506;8.966;2022-12-07T09:10:28;3.00;99.90
23089;DHT22;11713;48.506;8.966;2022-12-07T09:12:54;3.10;99.90
23089;DHT22;11713;48.506;8.966;2022-12-07T09:15:20;3.10;99.90
23089;DHT22;11713;48.506;8.966;2022-12-07T09:17:45;3.10;99.90
23089;DHT22;11713;48.506;8.966;2022-12-07T09:20:12;3.20;99.90
23089;DHT22;11713;48.506;8.966;2022-12-07T09:22:37;3.30;99.90
23089;DHT22;11713;48.506;8.966;2022-12-07T09:25:04;3.30;99.90
23089;DHT22;11713;48.506;8.966;2022-12-07T09:27:30;3.30;99.90
23089;DHT22;11713;48.506;8.966;2022-12-07T09:29:56;3.30;99.90
23089;DHT22;11713;48.506;8.966;2022-12-07T09:32:22;3.30;99.90
23089;DHT22;11713;48.506;8.966;2022-12-07T09:34:48;3.40;99.90
23089;DHT22;11713;48.506;8.966;2022-12-07T09:37:14;3.40;99.90
23089;DHT22;11713;48.506;8.966;2022-12-07T09:39:40;3.50;99.90
23089;DHT22;11713;48.506;8.966;2022-12-07T09:42:07;3.50;99.90
23089;DHT22;11713;48.506;8.966;2022-12-07T09:44:35;3.50;99.90
23089;DHT22;11713;48.506;8.966;2022-12-07T09:47:01;3.50;99.90
23089;DHT22;11713;48.506;8.966;2022-12-07T09:49:30;3.60;99.90
23089;DHT22;11713;48.506;8.966;2022-12-07T09:54:42;3.60;99.90
23089;DHT22;11713;48.506;8.966;2022-12-07T09:57:11;3.60;99.90
23089;DHT22;11713;48.506;8.966;2022-12-07T09:59:38;3.60;99.90
23089;DHT22;11713;48.506;8.966;2022-12-07T10:04:57;3.70;99.90
23089;DHT22;11713;48.506;8.966;2022-12-07T10:07:23;3.70;99.90
23089;DHT22;11713;48.506;8.966;2022-12-07T10:09:49;3.70;99.90
23089;DHT22;11713;48.506;8.966;2022-12-07T10:12:15;3.70;99.90
23089;DHT22;11713;48.506;8.966;2022-12-07T10:14:57;3.80;99.90
23089;DHT22;11713;48.506;8.966;2022-12-07T10:17:39;3.90;99.90
23089;DHT22;11713;48.506;8.966;2022-12-07T10:20:22;3.80;99.90
23089;DHT22;11713;48.506;8.966;2022-12-07T10:23:03;3.90;99.90
23089;DHT22;11713;48.506;8.966;2022-12-07T10:25:33;3.90;99.90
23089;DHT22;11713;48.506;8.966;2022-12-07T10:33:34;4.10;99.90
23089;DHT22;11713;48.506;8.966;2022-12-07T10:36:09;4.10;99.90
23089;DHT22;11713;48.506;8.966;2022-12-07T10:38:46;4.10;99.90
23089;DHT22;11713;48.506;8.966;2022-12-07T10:41:12;4.10;99.90
23089;DHT22;11713;48.506;8.966;2022-12-07T10:43:47;4.20;99.90
23089;DHT22;11713;48.506;8.966;2022-12-07T10:46:46;4.20;99.90
23089;DHT22;11713;48.506;8.966;2022-12-07T10:55:12;4.30;99.90
23089;DHT22;11713;48.506;8.966;2022-12-07T10:57:45;4.40;99.90
23089;DHT22;11713;48.506;8.966;2022-12-07T11:00:25;4.40;99.90
23089;DHT22;11713;48.506;8.966;2022-12-07T11:05:52;4.50;99.90
23089;DHT22;11713;48.506;8.966;2022-12-07T11:16:48;4.60;99.90
23089;DHT22;11713;48.506;8.966;2022-12-07T11:19:18;4.60;99.90
23089;DHT22;11713;48.506;8.966;2022-12-07T11:24:19;4.60;99.90
23089;DHT22;11713;48.506;8.966;2022-12-07T11:32:56;4.70;99.90
23089;DHT22;11713;48.506;8.966;2022-12-07T11:41:06;4.70;99.90
23089;DHT22;11713;48.506;8.966;2022-12-07T11:43:52;4.80;99.90
23089;DHT22;11713;48.506;8.966;2022-12-07T11:46:20;4.90;99.90
23089;DHT22;11713;48.506;8.966;2022-12-07T11:49:02;4.90;99.90
23089;DHT22;11713;48.506;8.966;2022-12-07T11:51:32;4.90;99.90
23089;DHT22;11713;48.506;8.966;2022-12-07T11:54:10;4.90;99.90
23089;DHT22;11713;48.506;8.966;2022-12-07T11:56:37;4.90;99.90
23089;DHT22;11713;48.506;8.966;2022-12-07T11:59:12;4.90;99.90
23089;DHT22;11713;48.506;8.966;2022-12-07T12:05:12;4.90;99.90
23089;DHT22;11713;48.506;8.966;2022-12-07T12:07:39;5.00;99.90
23089;DHT22;11713;48.506;8.966;2022-12-07T12:10:36;5.00;99.90
23089;DHT22;11713;48.506;8.966;2022-12-07T12:15:48;5.00;99.90
23089;DHT22;11713;48.506;8.966;2022-12-07T12:21:18;5.10;99.90
23089;DHT22;11713;48.506;8.966;2022-12-07T12:24:11;5.10;99.90
23089;DHT22;11713;48.506;8.966;2022-12-07T12:26:52;5.10;99.90
23089;DHT22;11713;48.506;8.966;2022-12-07T12:29:32;5.10;99.90
23089;DHT22;11713;48.506;8.966;2022-12-07T12:32:41;5.10;99.90
23089;DHT22;11713;48.506;8.966;2022-12-07T12:35:30;5.20;99.90
23089;DHT22;11713;48.506;8.966;2022-12-07T12:40:45;5.20;99.90
23089;DHT22;11713;48.506;8.966;2022-12-07T12:43:43;5.20;99.90
23089;DHT22;11713;48.506;8.966;2022-12-07T12:54:32;5.30;99.90
23089;DHT22;11713;48.506;8.966;2022-12-07T12:56:59;5.30;99.90
23089;DHT22;11713;48.506;8.966;2022-12-07T13:05:00;5.40;99.90
23089;DHT22;11713;48.506;8.966;2022-12-07T13:15:41;5.50;99.90
23089;DHT22;11713;48.506;8.966;2022-12-07T13:26:17;5.50;99.90
23089;DHT22;11713;48.506;8.966;2022-12-07T13:28:52;5.50;99.90
23089;DHT22;11713;48.506;8.966;2022-12-07T13:32:17;5.50;99.90
23089;DHT22;11713;48.506;8.966;2022-12-07T13:39:54;5.50;99.90
23089;DHT22;11713;48.506;8.966;2022-12-07T13:42:33;5.50;99.90
23089;DHT22;11713;48.506;8.966;2022-12-07T13:45:20;5.50;99.90
23089;DHT22;11713;48.506;8.966;2022-12-07T13:47:52;5.50;99.90
23089;DHT22;11713;48.506;8.966;2022-12-07T13:50:26;5.50;99.90
23089;DHT22;11713;48.506;8.966;2022-12-07T13:52:58;5.50;99.90
23089;DHT22;11713;48.506;8.966;2022-12-07T13:55:29;5.50;99.90
23089;DHT22;11713;48.506;8.966;2022-12-07T13:57:56;5.50;99.90
23089;DHT22;11713;48.506;8.966;2022-12-07T14:00:27;5.50;99.90
23089;DHT22;11713;48.506;8.966;2022-12-07T14:05:40;5.30;99.90
23089;DHT22;11713;48.506;8.966;2022-12-07T14:10:42;5.10;99.90
23089;DHT22;11713;48.506;8.966;2022-12-07T14:13:37;5.10;99.90
23089;DHT22;11713;48.506;8.966;2022-12-07T14:16:34;5.10;99.90
23089;DHT22;11713;48.506;8.966;2022-12-07T14:19:03;5.00;99.90
23089;DHT22;11713;48.506;8.966;2022-12-07T14:21:32;4.90;99.90
23089;DHT22;11713;48.506;8.966;2022-12-07T14:24:15;4.90;99.90
23089;DHT22;11713;48.506;8.966;2022-12-07T14:26:42;4.90;99.90
23089;DHT22;11713;48.506;8.966;2022-12-07T14:31:54;4.90;99.90
23089;DHT22;11713;48.506;8.966;2022-12-07T14:34:21;4.80;99.90
23089;DHT22;11713;48.506;8.966;2022-12-07T14:36:47;4.80;99.90
23089;DHT22;11713;48.506;8.966;2022-12-07T14:39:13;4.80;99.90
23089;DHT22;11713;48.506;8.966;2022-12-07T14:41:39;4.80;99.90
23089;DHT22;11713;48.506;8.966;2022-12-07T14:44:20;4.80;99.90
23089;DHT22;11713;48.506;8.966;2022-12-07T14:46:50;4.80;99.90
23089;DHT22;11713;48.506;8.966;2022-12-07T14:49:17;4.80;99.90
23089;DHT22;11713;48.506;8.966;2022-12-07T14:51:44;4.80;99.90
23089;DHT22;11713;48.506;8.966;2022-12-07T14:54:17;4.80;99.90
23089;DHT22;11713;48.506;8.966;2022-12-07T14:56:44;4.80;99.90
23089;DHT22;11713;48.506;8.966;2022-12-07T14:59:12;4.80;99.90
23089;DHT22;11713;48.506;8.966;2022-12-07T15:01:38;4.80;99.90
23089;DHT22;11713;48.506;8.966;2022-12-07T15:04:04;4.80;99.90
23089;DHT22;11713;48.506;8.966;2022-12-07T15:06:30;4.80;99.90
23089;DHT22;11713;48.506;8.966;2022-12-07T15:08:57;4.80;99.90
23089;DHT22;11713;48.506;8.966;2022-12-07T15:11:23;4.70;99.90
23089;DHT22;11713;48.506;8.966;2022-12-07T15:13:49;4.70;99.90
23089;DHT22;11713;48.506;8.966;2022-12-07T15:16:34;4.70;99.90
23089;DHT22;11713;48.506;8.966;2022-12-07T15:19:00;4.60;99.90
23089;DHT22;11713;48.506;8.966;2022-12-07T15:21:26;4.60;99.90
23089;DHT22;11713;48.506;8.966;2022-12-07T15:23:53;4.50;99.90
23089;DHT22;11713;48.506;8.966;2022-12-07T15:26:19;4.50;99.90
23089;DHT22;11713;48.506;8.966;2022-12-07T15:28:45;4.50;99.90
23089;DHT22;11713;48.506;8.966;2022-12-07T15:31:12;4.50;99.90
23089;DHT22;11713;48.506;8.966;2022-12-07T15:33:38;4.50;99.90
23089;DHT22;11713;48.506;8.966;2022-12-07T15:36:04;4.40;99.90
23089;DHT22;11713;48.506;8.966;2022-12-07T15:38:30;4.40;99.90
23089;DHT22;11713;48.506;8.966;2022-12-07T15:40:56;4.40;99.90
23089;DHT22;11713;48.506;8.966;2022-12-07T15:43:22;4.40;99.90
23089;DHT22;11713;48.506;8.966;2022-12-07T15:46:07;4.40;99.90
23089;DHT22;11713;48.506;8.966;2022-12-07T15:48:33;4.40;99.90
23089;DHT22;11713;48.506;8.966;2022-12-07T15:51:08;4.40;99.90
23089;DHT22;11713;48.506;8.966;2022-12-07T15:53:34;4.40;99.90
23089;DHT22;11713;48.506;8.966;2022-12-07T15:56:01;4.40;99.90
23089;DHT22;11713;48.506;8.966;2022-12-07T15:58:27;4.40;99.90
23089;DHT22;11713;48.506;8.966;2022-12-07T16:00:53;4.40;99.90
23089;DHT22;11713;48.506;8.966;2022-12-07T16:03:18;4.40;99.90
23089;DHT22;11713;48.506;8.966;2022-12-07T16:05:51;4.40;99.90
23089;DHT22;11713;48.506;8.966;2022-12-07T16:08:18;4.30;99.90
23089;DHT22;11713;48.506;8.966;2022-12-07T16:10:44;4.30;99.90
23089;DHT22;11713;48.506;8.966;2022-12-07T16:13:11;4.30;99.90
23089;DHT22;11713;48.506;8.966;2022-12-07T16:15:41;4.30;99.90
23089;DHT22;11713;48.506;8.966;2022-12-07T16:18:07;4.30;99.90
23089;DHT22;11713;48.506;8.966;2022-12-07T16:20:33;4.30;99.90
23089;DHT22;11713;48.506;8.966;2022-12-07T16:22:59;4.30;99.90
23089;DHT22;11713;48.506;8.966;2022-12-07T16:25:25;4.30;99.90
23089;DHT22;11713;48.506;8.966;2022-12-07T16:27:52;4.30;99.90
23089;DHT22;11713;48.506;8.966;2022-12-07T16:30:18;4.20;99.90
23089;DHT22;11713;48.506;8.966;2022-12-07T16:32:44;4.20;99.90
23089;DHT22;11713;48.506;8.966;2022-12-07T16:35:11;4.20;99.90
23089;DHT22;11713;48.506;8.966;2022-12-07T16:37:37;4.20;99.90
23089;DHT22;11713;48.506;8.966;2022-12-07T16:40:04;4.20;99.90
23089;DHT22;11713;48.506;8.966;2022-12-07T16:42:34;4.20;99.90
23089;DHT22;11713;48.506;8.966;2022-12-07T16:45:00;4.20;99.90
23089;DHT22;11713;48.506;8.966;2022-12-07T16:47:26;4.10;99.90
23089;DHT22;11713;48.506;8.966;2022-12-07T16:49:52;4.10;99.90
23089;DHT22;11713;48.506;8.966;2022-12-07T16:52:19;4.10;99.90
23089;DHT22;11713;48.506;8.966;2022-12-07T16:54:47;4.10;99.90
23089;DHT22;11713;48.506;8.966;2022-12-07T16:57:16;4.20;99.90
23089;DHT22;11713;48.506;8.966;2022-12-07T16:59:58;4.10;99.90
23089;DHT22;11713;48.506;8.966;2022-12-07T17:02:36;4.10;99.90
23089;DHT22;11713;48.506;8.966;2022-12-07T17:05:27;4.00;99.90
23089;DHT22;11713;48.506;8.966;2022-12-07T17:07:55;4.00;99.90
23089;DHT22;11713;48.506;8.966;2022-12-07T17:10:43;4.00;99.90
23089;DHT22;11713;48.506;8.966;2022-12-07T17:13:17;4.00;99.90
23089;DHT22;11713;48.506;8.966;2022-12-07T17:16:06;4.00;99.90
23089;DHT22;11713;48.506;8.966;2022-12-07T17:18:36;4.00;99.90
23089;DHT22;11713;48.506;8.966;2022-12-07T17:21:08;4.00;99.90
23089;DHT22;11713;48.506;8.966;2022-12-07T17:23:50;4.00;99.90
23089;DHT22;11713;48.506;8.966;2022-12-07T17:26:22;4.00;99.90
23089;DHT22;11713;48.506;8.966;2022-12-07T17:28:49;4.00;99.90
23089;DHT22;11713;48.506;8.966;2022-12-07T17:31:31;3.90;99.90
23089;DHT22;11713;48.506;8.966;2022-12-07T17:34:00;3.90;99.90
23089;DHT22;11713;48.506;8.966;2022-12-07T17:36:28;3.90;99.90
23089;DHT22;11713;48.506;8.966;2022-12-07T17:39:19;3.90;99.90
23089;DHT22;11713;48.506;8.966;2022-12-07T17:42:23;3.80;99.90
23089;DHT22;11713;48.506;8.966;2022-12-07T17:45:07;3.80;99.90
23089;DHT22;11713;48.506;8.966;2022-12-07T17:47:36;3.80;99.90
23089;DHT22;11713;48.506;8.966;2022-12-07T17:50:03;3.70;99.90
23089;DHT22;11713;48.506;8.966;2022-12-07T17:52:29;3.70;99.90
23089;DHT22;11713;48.506;8.966;2022-12-07T17:55:13;3.60;99.90
23089;DHT22;11713;48.506;8.966;2022-12-07T17:57:39;3.70;99.90
23089;DHT22;11713;48.506;8.966;2022-12-07T18:00:06;3.60;99.90
23089;DHT22;11713;48.506;8.966;2022-12-07T18:02:37;3.60;99.90
23089;DHT22;11713;48.506;8.966;2022-12-07T18:05:04;3.50;99.90
23089;DHT22;11713;48.506;8.966;2022-12-07T18:07:30;3.50;99.90
23089;DHT22;11713;48.506;8.966;2022-12-07T18:09:56;3.40;99.90
23089;DHT22;11713;48.506;8.966;2022-12-07T18:12:23;3.40;99.90
23089;DHT22;11713;48.506;8.966;2022-12-07T18:14:49;3.40;99.90
23089;DHT22;11713;48.506;8.966;2022-12-07T18:17:16;3.40;99.90